createdAt,value
2022-11-12T00:00:35.118Z,32.50
2022-11-12T00:05:50.467Z,34.50
2022-11-12T00:10:54.595Z,29.10
2022-11-12T00:15:58.663Z,33.90
2022-11-12T00:21:02.484Z,32.00
2022-11-12T00:26:06.714Z,25.50
2022-11-12T00:31:12.354Z,31.10
2022-11-12T00:36:16.001Z,34.50
2022-11-12T00:41:19.478Z,31.00
2022-11-12T00:46:23.224Z,32.00
2022-11-12T00:51:26.833Z,27.40
2022-11-12T00:56:35.366Z,32.00
2022-11-12T01:01:39.930Z,27.70
2022-11-12T01:06:44.940Z,28.90
2022-11-12T01:11:48.744Z,27.30
2022-11-12T01:16:52.304Z,32.50
2022-11-12T01:21:56.335Z,30.40
2022-11-12T01:27:00.271Z,26.80
2022-11-12T01:32:04.505Z,33.80
2022-11-12T01:37:08.421Z,34.90
2022-11-12T01:42:12.960Z,30.60
2022-11-12T01:47:22.329Z,30.60
2022-11-12T01:52:31.731Z,31.00
2022-11-12T01:57:38.156Z,30.10
2022-11-12T02:02:47.158Z,31.40
2022-11-12T02:07:52.417Z,29.80
2022-11-12T02:13:15.988Z,31.10
2022-11-12T02:18:20.088Z,31.20
2022-11-12T02:23:23.692Z,33.00
2022-11-12T02:28:28.751Z,33.20
2022-11-12T02:33:32.905Z,32.60
2022-11-12T02:38:36.523Z,29.50
2022-11-12T02:43:40.615Z,32.00
2022-11-12T02:48:45.067Z,28.00
2022-11-12T02:53:48.788Z,33.60
2022-11-12T02:58:52.525Z,31.90
2022-11-12T03:03:56.347Z,32.40
2022-11-12T03:09:00.354Z,30.10
2022-11-12T03:14:04.091Z,33.60
2022-11-12T03:19:08.863Z,31.70
2022-11-12T03:24:12.722Z,33.10
2022-11-12T03:29:16.675Z,34.00
2022-11-12T03:34:20.295Z,33.80
2022-11-12T03:39:24.376Z,34.70
2022-11-12T03:44:28.319Z,33.80
2022-11-12T03:49:31.869Z,34.50
2022-11-12T03:54:35.484Z,32.20
2022-11-12T03:59:39.061Z,33.70
2022-11-12T04:05:00.740Z,30.90
2022-11-12T04:10:05.624Z,35.00
2022-11-12T04:15:10.759Z,30.80
2022-11-12T04:20:32.899Z,29.50
2022-11-12T04:26:00.360Z,36.40
2022-11-12T04:31:04.090Z,28.90
2022-11-12T04:36:07.803Z,30.40
2022-11-12T04:41:43.821Z,31.30
2022-11-12T04:46:47.193Z,27.90
2022-11-12T04:52:05.856Z,30.20
2022-11-12T05:00:39.077Z,34.00
2022-11-12T05:10:52.138Z,25.90
2022-11-12T05:16:00.110Z,28.20
2022-11-12T05:21:21.493Z,31.80
2022-11-12T05:26:29.526Z,29.60
2022-11-12T05:31:37.456Z,29.90
2022-11-12T05:36:46.580Z,29.90
2022-11-12T05:42:11.787Z,32.00
2022-11-12T05:47:19.457Z,31.00
2022-11-12T05:57:32.065Z,31.70
2022-11-12T06:07:44.781Z,30.30
2022-11-12T06:12:52.247Z,32.40
2022-11-12T06:17:59.329Z,33.30
2022-11-12T06:23:06.999Z,31.60
2022-11-12T06:28:14.154Z,39.10
2022-11-12T06:38:26.774Z,28.60
2022-11-12T06:43:36.189Z,30.80
2022-11-12T06:48:43.860Z,37.60
2022-11-12T06:53:52.048Z,37.00
2022-11-12T06:58:59.377Z,42.30
2022-11-12T07:04:07.234Z,37.10
2022-11-12T07:09:14.494Z,35.50
2022-11-12T07:17:17.734Z,36.20
2022-11-12T07:22:25.140Z,42.10
2022-11-12T07:27:33.489Z,38.80
2022-11-12T07:32:44.993Z,41.70
2022-11-12T07:37:59.409Z,44.70
2022-11-12T07:43:06.663Z,46.90
2022-11-12T07:48:13.829Z,42.90
2022-11-12T07:58:27.275Z,42.00
2022-11-12T08:03:35.274Z,40.70
2022-11-12T08:08:42.652Z,37.80
2022-11-12T08:13:51.715Z,42.50
2022-11-12T08:18:58.962Z,41.70
2022-11-12T08:24:06.561Z,47.50
2022-11-12T08:29:13.673Z,37.00
2022-11-12T08:39:30.355Z,33.10
2022-11-12T08:44:37.459Z,36.10
2022-11-12T08:49:48.028Z,40.40
2022-11-12T08:54:55.385Z,34.60
2022-11-12T09:00:03.832Z,38.70
2022-11-12T09:05:11.941Z,36.60
2022-11-12T09:10:19.538Z,37.90
2022-11-12T09:15:37.479Z,28.20
2022-11-12T09:20:45.545Z,39.50
2022-11-12T09:25:52.548Z,36.40
2022-11-12T09:36:06.121Z,29.50
2022-11-12T09:41:28.528Z,36.10
2022-11-12T09:46:41.629Z,36.70
2022-11-12T09:51:52.594Z,36.80
2022-11-12T09:59:13.158Z,32.20
2022-11-12T10:04:40.968Z,33.60
2022-11-12T10:09:59.994Z,27.80
2022-11-12T10:15:58.488Z,23.80
2022-11-12T10:21:17.741Z,23.20
2022-11-12T10:26:28.324Z,21.80
2022-11-12T10:31:35.764Z,20.10
2022-11-12T10:36:45.480Z,21.90
2022-11-12T10:42:05.706Z,15.70
2022-11-12T10:57:21.191Z,12.50
2022-11-12T11:02:25.223Z,13.90
2022-11-12T11:07:29.436Z,12.60
2022-11-12T11:12:34.487Z,11.80
2022-11-12T11:17:38.318Z,14.10
2022-11-12T11:22:44.584Z,12.80
2022-11-12T11:28:00.510Z,13.70
2022-11-12T11:33:23.256Z,11.50
2022-11-12T11:38:41.110Z,14.50
2022-11-12T11:43:57.668Z,13.80
2022-11-12T11:49:26.229Z,13.70
2022-11-12T11:54:53.800Z,12.60
2022-11-12T12:00:10.719Z,9.50
2022-11-12T12:05:28.405Z,10.30
2022-11-12T12:11:06.951Z,13.70
2022-11-12T12:16:35.507Z,16.20
2022-11-12T12:21:44.341Z,16.40
2022-11-12T12:26:53.766Z,14.80
2022-11-12T12:32:05.631Z,17.00
2022-11-12T12:37:22.326Z,17.90
2022-11-12T12:42:29.553Z,21.20
2022-11-12T12:47:40.216Z,19.20
2022-11-12T12:53:06.137Z,21.30
2022-11-12T12:58:28.718Z,24.20
2022-11-12T13:03:57.795Z,19.40
2022-11-12T13:09:05.016Z,17.40
2022-11-12T13:14:51.848Z,17.40
2022-11-12T13:20:18.813Z,19.30
2022-11-12T13:25:28.373Z,18.00
2022-11-12T13:30:57.132Z,18.40
2022-11-12T13:36:26.086Z,17.20
2022-11-12T13:41:49.580Z,18.50
2022-11-12T13:46:55.389Z,13.40
2022-11-12T13:52:00.375Z,16.00
2022-11-12T13:57:28.528Z,17.20
2022-11-12T14:02:36.828Z,14.60
2022-11-12T14:07:53.184Z,17.70
2022-11-12T14:13:12.179Z,11.50
2022-11-12T14:18:23.227Z,17.60
2022-11-12T14:23:27.398Z,15.60
2022-11-12T14:28:34.193Z,17.30
2022-11-12T14:33:37.711Z,20.50
2022-11-12T14:38:44.831Z,20.40
2022-11-12T14:44:07.490Z,20.90
2022-11-12T14:49:21.041Z,18.90
2022-11-12T14:54:30.923Z,17.10
2022-11-12T14:59:35.925Z,16.80
2022-11-12T15:04:42.824Z,14.70
2022-11-12T15:14:49.898Z,16.70
2022-11-12T15:19:53.611Z,20.50
2022-11-12T15:25:09.331Z,17.70
2022-11-12T15:30:19.475Z,18.20
2022-11-12T15:35:38.034Z,15.80
2022-11-12T15:40:44.489Z,14.40
2022-11-12T15:45:50.266Z,18.70
2022-11-12T15:50:55.300Z,16.90
2022-11-12T15:55:59.241Z,13.50
2022-11-12T16:01:03.370Z,19.00
2022-11-12T16:06:09.939Z,22.80
2022-11-12T16:11:28.303Z,18.80
2022-11-12T16:16:33.258Z,20.20
2022-11-12T16:21:36.841Z,22.70
2022-11-12T16:26:40.602Z,23.00
2022-11-12T16:31:44.848Z,14.70
2022-11-12T16:36:49.484Z,24.50
2022-11-12T16:41:53.241Z,25.00
2022-11-12T16:46:56.716Z,34.50
2022-11-12T16:52:00.298Z,38.10
2022-11-12T16:57:04.239Z,32.60
2022-11-12T17:02:14.156Z,31.10
2022-11-12T17:07:17.761Z,35.60
2022-11-12T17:12:21.517Z,31.20
2022-11-12T17:17:25.215Z,24.40
2022-11-12T17:22:29.776Z,37.10
2022-11-12T17:27:33.489Z,30.70
2022-11-12T17:32:37.074Z,29.40
2022-11-12T17:37:40.613Z,22.20
2022-11-12T17:42:44.362Z,34.80
2022-11-12T17:47:48.183Z,32.70
2022-11-12T17:52:51.683Z,35.10
2022-11-12T17:57:55.318Z,40.50
2022-11-12T18:02:59.414Z,37.30
2022-11-12T18:08:02.929Z,34.40
2022-11-12T18:13:06.486Z,37.00
2022-11-12T18:18:09.970Z,40.50
2022-11-12T18:23:13.669Z,38.60
2022-11-12T18:40:21.478Z,33.80
2022-11-12T18:45:24.976Z,39.20
2022-11-12T18:50:28.870Z,38.00
2022-11-12T18:55:32.288Z,49.60
2022-11-12T19:00:36.353Z,45.70
2022-11-12T19:05:40.002Z,49.50
2022-11-12T19:10:43.884Z,41.60
2022-11-12T19:15:47.717Z,45.00
2022-11-12T19:20:51.919Z,43.20
2022-11-12T19:25:55.400Z,38.90
2022-11-12T19:31:02.958Z,44.50
2022-11-12T19:36:10.275Z,44.70
2022-11-12T19:41:19.646Z,42.40
2022-11-12T19:46:24.851Z,46.40
2022-11-12T19:51:30.407Z,43.00
2022-11-12T19:56:34.585Z,43.00
2022-11-12T20:01:38.139Z,45.90
2022-11-12T20:06:42.110Z,41.30
2022-11-12T20:11:45.797Z,46.40
2022-11-12T20:16:51.099Z,47.20
2022-11-12T20:21:54.561Z,49.60
2022-11-12T20:26:58.358Z,43.00
2022-11-12T20:32:02.336Z,51.00
2022-11-12T20:37:05.926Z,52.40
2022-11-12T20:42:09.594Z,50.20
2022-11-12T20:47:13.363Z,57.80
2022-11-12T20:52:16.877Z,57.90
2022-11-12T20:57:20.502Z,54.30
2022-11-12T21:02:24.524Z,47.20
2022-11-12T21:07:28.679Z,50.60
2022-11-12T21:12:32.684Z,49.20
2022-11-12T21:17:36.286Z,55.60
2022-11-12T21:22:39.945Z,52.20
2022-11-12T21:27:44.091Z,54.10
2022-11-12T21:32:47.638Z,53.80
2022-11-12T21:37:50.992Z,47.00
2022-11-12T21:42:54.582Z,51.20
2022-11-12T21:47:58.285Z,53.70
2022-11-12T21:53:01.846Z,46.70
2022-11-12T21:58:05.488Z,47.20
2022-11-12T22:03:08.933Z,49.00
2022-11-12T22:08:12.448Z,46.60
2022-11-12T22:13:31.521Z,46.40
2022-11-12T22:18:35.850Z,43.50
2022-11-12T22:23:39.994Z,45.70
2022-11-12T22:28:44.275Z,46.50
2022-11-12T22:33:48.343Z,42.10
2022-11-12T22:38:53.148Z,43.50
2022-11-12T22:43:58.462Z,49.40
2022-11-12T22:49:02.616Z,44.70
2022-11-12T22:54:08.806Z,44.90
2022-11-12T22:59:12.767Z,48.40
2022-11-12T23:04:16.282Z,44.70
2022-11-12T23:09:19.801Z,46.10
2022-11-12T23:14:23.778Z,48.10
2022-11-12T23:19:27.648Z,46.10
2022-11-12T23:24:31.258Z,51.50
2022-11-12T23:29:34.924Z,51.60
2022-11-12T23:34:38.430Z,53.30
2022-11-12T23:39:42.224Z,53.10
2022-11-12T23:44:46.045Z,47.70
2022-11-12T23:49:49.777Z,52.50
2022-11-12T23:54:53.305Z,54.10
2022-11-12T23:59:56.766Z,54.00
